Time;durP1;ratioP1;P1;durP2;ratioP2;P2;SDS_P1;SDS_P2;PMS_P1;PMS_P2;Temp;Humidity;BMP_temperature;BMP_pressure;BME280_temperature;BME280_humidity;BME280_pressure;Samples;Min_cycle;Max_cycle;Signal;HPM_P1;HPM_P2
2022/11/04 00:01:18;;;;;;;44.60;20.60;;;;;;;8.49;73.00;98394.92;86126;1312;98331;-71
2022/11/04 00:03:20;;;;;;;35.80;20.50;;;;;;;8.46;72.77;98388.23;86302;1302;22514;-72
2022/11/04 00:05:22;;;;;;;47.10;20.30;;;;;;;8.44;73.20;98390.27;85977;1284;25905;-72
2022/11/04 00:09:57;;;;;;;36.30;19.00;;;;;;;8.39;72.81;98388.59;86224;1303;22546;-72
2022/11/04 00:14:20;;;;;;;41.90;20.20;;;;;;;8.33;72.88;98380.59;87694;1294;98094;-71
2022/11/04 00:18:41;;;;;;;30.70;18.20;;;;;;;8.29;73.03;98371.19;87945;1288;99780;-71
2022/11/04 00:30:09;;;;;;;28.50;17.20;;;;;;;8.21;73.39;98359.48;86178;1290;22599;-70
2022/11/04 00:34:31;;;;;;;29.00;17.30;;;;;;;8.19;73.40;98359.23;86130;1312;24294;-71
2022/11/04 00:36:33;;;;;;;26.30;15.90;;;;;;;8.18;73.26;98359.98;86241;1294;22504;-71
2022/11/04 00:38:35;;;;;;;33.30;16.50;;;;;;;8.15;72.94;98354.19;86072;1313;22568;-72
2022/11/04 00:40:37;;;;;;;40.50;17.60;;;;;;;8.11;73.61;98347.05;86183;1291;22508;-71
2022/11/04 00:42:38;;;;;;;28.80;15.90;;;;;;;8.13;73.64;98345.55;86116;1305;98106;-71
2022/11/04 00:44:40;;;;;;;27.50;15.50;;;;;;;8.12;73.90;98341.04;86208;1313;23870;-72
2022/11/04 00:46:42;;;;;;;30.80;16.30;;;;;;;8.11;73.39;98340.21;86143;1312;22527;-73
2022/11/04 00:48:44;;;;;;;28.40;15.50;;;;;;;8.10;73.49;98339.91;86235;1305;99375;-71
2022/11/04 00:50:45;;;;;;;28.80;16.20;;;;;;;8.10;73.39;98339.89;86296;1310;22571;-72
2022/11/04 00:52:47;;;;;;;22.70;15.80;;;;;;;8.09;73.58;98339.96;86146;1304;22595;-71
2022/11/04 00:54:49;;;;;;;32.20;17.60;;;;;;;8.09;73.63;98336.80;86052;1297;98172;-73
2022/11/04 00:56:52;;;;;;;29.40;17.10;;;;;;;8.11;73.60;98335.69;86117;1298;22550;-72
2022/11/04 00:58:54;;;;;;;36.20;16.80;;;;;;;8.10;73.71;98331.17;86098;1312;26064;-71
2022/11/04 01:00:56;;;;;;;29.10;16.60;;;;;;;8.09;73.67;98330.86;86028;1296;100246;-72
2022/11/04 01:02:59;;;;;;;39.60;18.10;;;;;;;8.08;73.68;98326.02;85940;1293;22557;-72
2022/11/04 01:05:00;;;;;;;34.60;17.00;;;;;;;8.07;73.33;98321.85;86053;1310;22516;-71
2022/11/04 01:07:03;;;;;;;30.60;17.50;;;;;;;8.06;73.66;98317.54;85812;1293;99209;-72
2022/11/04 01:09:08;;;;;;;27.60;17.00;;;;;;;8.05;73.78;98314.09;85907;1291;22485;-72
2022/11/04 01:11:10;;;;;;;33.10;17.30;;;;;;;8.04;73.78;98312.02;86112;1292;22615;-72
2022/11/04 01:13:13;;;;;;;32.40;16.30;;;;;;;8.04;73.63;98306.78;85777;1297;99132;-71
2022/11/04 01:15:14;;;;;;;31.10;16.10;;;;;;;8.05;73.63;98304.14;85881;1297;22490;-72
2022/11/04 01:17:16;;;;;;;37.50;15.60;;;;;;;8.06;73.91;98301.09;85754;1297;25279;-71
2022/11/04 01:19:18;;;;;;;29.60;16.50;;;;;;;8.05;73.38;98298.84;85842;1290;99169;-73
2022/11/04 01:21:20;;;;;;;26.70;14.90;;;;;;;8.06;74.25;98298.64;85959;1296;24247;-71
2022/11/04 01:23:21;;;;;;;27.10;16.10;;;;;;;8.08;73.93;98293.85;85688;1291;23200;-71
2022/11/04 01:25:23;;;;;;;26.60;15.40;;;;;;;8.09;73.65;98292.04;85724;1296;99969;-73
2022/11/04 01:27:25;;;;;;;30.40;14.90;;;;;;;8.09;73.80;98293.75;85966;1298;25288;-72
2022/11/04 01:29:28;;;;;;;25.10;14.50;;;;;;;8.10;74.00;98291.09;86129;1288;25381;-72
2022/11/04 01:31:31;;;;;;;25.80;15.60;;;;;;;8.10;73.77;98285.83;86463;1298;98475;-72
2022/11/04 01:33:33;;;;;;;26.50;14.60;;;;;;;8.11;73.94;98283.01;87007;1290;22619;-72
2022/11/04 01:35:36;;;;;;;24.50;14.00;;;;;;;8.10;73.68;98283.91;86183;1291;22500;-73
2022/11/04 01:37:37;;;;;;;25.90;14.60;;;;;;;8.10;73.93;98280.95;85930;1298;98055;-72
2022/11/04 01:39:39;;;;;;;22.80;13.80;;;;;;;8.08;73.89;98276.84;86104;1297;22617;-70
2022/11/04 01:41:41;;;;;;;26.10;14.30;;;;;;;8.08;73.82;98274.59;85819;1299;22486;-72
2022/11/04 01:43:55;;;;;;;21.40;13.90;;;;;;;8.09;74.09;98267.88;85797;1312;99494;-72
2022/11/04 01:46:00;;;;;;;16.90;13.30;;;;;;;8.09;74.10;98266.46;85949;1287;25925;-72
2022/11/04 01:48:11;;;;;;;24.60;13.60;;;;;;;8.07;73.95;98263.42;85785;1299;22504;-72
2022/11/04 01:50:24;;;;;;;22.50;14.40;;;;;;;8.03;74.02;98259.58;85829;1294;99030;-72
2022/11/04 01:52:33;;;;;;;19.70;11.70;;;;;;;8.04;74.20;98255.02;85853;1283;25297;-72
2022/11/04 01:54:37;;;;;;;25.80;14.00;;;;;;;8.05;73.88;98251.65;85749;1290;22523;-73
2022/11/04 01:56:41;;;;;;;34.70;13.00;;;;;;;8.04;74.06;98250.96;85645;1297;25414;-72
2022/11/04 01:58:50;;;;;;;23.50;13.30;;;;;;;8.00;74.14;98241.03;85727;1307;22703;-71
2022/11/04 02:00:51;;;;;;;33.40;14.10;;;;;;;8.01;74.26;98242.16;85752;1296;99346;-72
2022/11/04 02:02:56;;;;;;;27.10;13.30;;;;;;;8.01;74.09;98236.76;85885;1291;25327;-71
2022/11/04 02:04:59;;;;;;;28.00;13.90;;;;;;;8.00;74.38;98227.89;85942;1295;22555;-71
2022/11/04 02:07:06;;;;;;;25.00;13.20;;;;;;;7.98;74.23;98228.31;85738;1300;99040;-71
2022/11/04 02:09:09;;;;;;;28.70;14.40;;;;;;;7.98;74.10;98224.14;86268;1292;25543;-71
2022/11/04 02:12:48;;;;;;;30.20;13.20;;;;;;;7.98;74.50;98224.84;85787;1297;22559;-72
2022/11/04 02:13:35;;;;;;;26.50;13.60;;;;;;;7.97;74.27;98223.48;85802;1281;99183;-70
2022/11/04 02:15:49;;;;;;;27.40;12.90;;;;;;;7.98;74.33;98223.96;85884;1287;24436;-71
2022/11/04 02:18:21;;;;;;;28.10;13.10;;;;;;;7.96;74.20;98220.89;85881;1297;25310;-72
2022/11/04 02:20:27;;;;;;;22.90;13.00;;;;;;;7.96;74.55;98222.69;85813;1312;99324;-73
2022/11/04 02:23:16;;;;;;;25.40;13.70;;;;;;;7.96;74.52;98221.63;85824;1304;22498;-72
2022/11/04 02:25:49;;;;;;;21.00;13.20;;;;;;;7.96;74.75;98211.31;84945;1309;99144;-72
2022/11/04 02:28:48;;;;;;;23.80;13.40;;;;;;;7.95;74.41;98212.54;85093;1306;23888;-73
2022/11/04 02:31:00;;;;;;;16.00;11.10;;;;;;;7.91;74.55;98204.89;84630;1294;99695;-72
2022/11/04 02:33:20;;;;;;;25.30;13.50;;;;;;;7.89;74.51;98202.55;84622;1304;26055;-71
2022/11/04 02:35:49;;;;;;;24.10;12.30;;;;;;;7.88;74.29;98198.73;84666;1304;24454;-70
2022/11/04 02:37:56;;;;;;;25.30;13.70;;;;;;;7.84;74.46;98189.50;84612;1318;99147;-72
2022/11/04 02:40:35;;;;;;;23.80;14.80;;;;;;;7.87;74.45;98193.20;84720;1304;22626;-71
2022/11/04 02:42:52;;;;;;;27.80;13.20;;;;;;;7.87;74.32;98191.29;84614;1312;99254;-71
2022/11/04 02:45:05;;;;;;;29.60;13.10;;;;;;;7.86;74.48;98191.15;84577;1304;22496;-71
2022/11/04 02:47:18;;;;;;;23.70;13.80;;;;;;;7.85;74.57;98190.83;84713;1304;23706;-72
2022/11/04 02:49:42;;;;;;;23.00;14.30;;;;;;;7.85;74.46;98195.77;84713;1305;98523;-71
2022/11/04 02:52:07;;;;;;;23.00;13.90;;;;;;;7.86;74.35;98197.82;84648;1305;22543;-72
2022/11/04 02:54:22;;;;;;;25.30;14.90;;;;;;;7.88;74.61;98199.65;84851;1312;24429;-72
2022/11/04 02:56:26;;;;;;;24.20;14.30;;;;;;;7.89;74.61;98196.27;84601;1302;99096;-72
2022/11/04 02:58:33;;;;;;;25.90;14.40;;;;;;;7.90;74.72;98198.30;84996;1321;25341;-72
2022/11/04 03:00:38;;;;;;;30.10;14.70;;;;;;;7.89;74.32;98198.52;84558;1305;22622;-73
2022/11/04 03:02:45;;;;;;;25.40;14.20;;;;;;;7.89;74.56;98196.10;85530;1291;22483;-71
2022/11/04 03:04:51;;;;;;;24.10;15.30;;;;;;;7.89;74.45;98192.42;85837;1297;22575;-71
2022/11/04 03:06:56;;;;;;;22.00;14.00;;;;;;;7.88;74.90;98191.77;85716;1291;99042;-72
2022/11/04 03:09:00;;;;;;;27.50;15.80;;;;;;;7.87;74.71;98192.52;85723;1297;23874;-71
2022/11/04 03:11:09;;;;;;;25.20;15.10;;;;;;;7.86;74.56;98197.64;85874;1291;22504;-73
2022/11/04 03:13:54;;;;;;;22.10;14.90;;;;;;;7.83;74.81;98197.23;85777;1290;99240;-72
2022/11/04 03:16:08;;;;;;;39.00;15.20;;;;;;;7.82;74.71;98196.44;85847;1295;24426;-72
2022/11/04 03:18:15;;;;;;;25.50;15.00;;;;;;;7.79;74.95;98197.61;85629;1300;24408;-72
2022/11/04 03:20:23;;;;;;;27.00;15.70;;;;;;;7.78;74.44;98199.06;85870;1287;98971;-72
2022/11/04 03:22:29;;;;;;;22.70;15.20;;;;;;;7.77;74.76;98194.73;85881;1290;22647;-71
2022/11/04 03:24:31;;;;;;;38.10;16.40;;;;;;;7.76;74.88;98193.23;85927;1291;22714;-72
2022/11/04 03:26:46;;;;;;;30.20;15.90;;;;;;;7.75;74.93;98192.39;85943;1298;98781;-71
2022/11/04 03:29:08;;;;;;;22.30;15.00;;;;;;;7.75;74.74;98191.17;85682;1293;23960;-72
2022/11/04 03:31:18;;;;;;;26.40;15.80;;;;;;;7.75;74.89;98177.70;85720;1283;99046;-71
2022/11/04 03:33:39;;;;;;;20.60;15.20;;;;;;;7.74;75.02;98184.59;85770;1296;22559;-72
2022/11/04 03:35:41;;;;;;;23.50;15.40;;;;;;;7.74;75.07;98177.21;85856;1290;24083;-71
2022/11/04 03:37:46;;;;;;;26.80;15.00;;;;;;;7.73;75.09;98175.88;85761;1287;103780;-71
2022/11/04 03:39:47;;;;;;;25.50;15.70;;;;;;;7.74;75.19;98171.81;85859;1280;26812;-72
2022/11/04 03:41:57;;;;;;;28.20;16.50;;;;;;;7.75;74.78;98162.34;85635;1301;25276;-72
2022/11/04 03:43:59;;;;;;;24.20;15.50;;;;;;;7.73;74.76;98167.16;86162;1312;99579;-71
2022/11/04 03:46:01;;;;;;;26.60;15.80;;;;;;;7.73;75.04;98172.05;85824;1284;24420;-72
2022/11/04 03:48:04;;;;;;;25.20;15.20;;;;;;;7.73;74.97;98166.98;85912;1288;22711;-72
2022/11/04 03:50:11;;;;;;;27.30;16.30;;;;;;;7.71;74.94;98162.16;86204;1292;99154;-72
2022/11/04 03:52:15;;;;;;;30.30;16.70;;;;;;;7.70;74.82;98161.32;85795;1294;22695;-71
2022/11/04 03:54:18;;;;;;;25.10;15.20;;;;;;;7.70;75.08;98157.32;85832;1298;25396;-72
2022/11/04 03:56:31;;;;;;;26.60;15.30;;;;;;;7.70;75.34;98155.92;85885;1299;99074;-72
2022/11/04 03:58:33;;;;;;;28.20;15.40;;;;;;;7.70;75.02;98146.31;85881;1290;25411;-72
2022/11/04 04:00:46;;;;;;;27.20;16.70;;;;;;;7.69;75.17;98152.11;85857;1290;22609;-71
2022/11/04 04:03:30;;;;;;;22.80;15.20;;;;;;;7.69;75.26;98139.36;85597;1299;22533;-72
2022/11/04 04:05:43;;;;;;;30.20;15.10;;;;;;;7.68;75.31;98145.71;85836;1311;24415;-72
2022/11/04 04:08:11;;;;;;;27.10;16.00;;;;;;;7.69;75.16;98142.00;85671;1293;99023;-72
2022/11/04 04:10:38;;;;;;;25.00;14.40;;;;;;;7.69;75.35;98137.95;85744;1298;22515;-71
2022/11/04 04:12:40;;;;;;;22.60;15.10;;;;;;;7.71;75.21;98136.64;85791;1288;22578;-73
2022/11/04 04:14:50;;;;;;;22.50;14.80;;;;;;;7.73;75.55;98137.27;85825;1298;22602;-71
2022/11/04 04:16:54;;;;;;;25.50;14.60;;;;;;;7.75;75.34;98132.77;85765;1304;22592;-72
2022/11/04 04:19:07;;;;;;;23.00;14.60;;;;;;;7.77;75.45;98126.77;85764;1290;99394;-73
2022/11/04 04:21:16;;;;;;;25.20;15.40;;;;;;;7.77;75.28;98123.23;85707;1291;24289;-72
2022/11/04 04:28:05;;;;;;;27.10;14.20;;;;;;;7.74;75.26;98105.90;85875;1302;22491;-72
2022/11/04 04:30:11;;;;;;;20.90;14.40;;;;;;;7.73;75.12;98100.52;85646;1293;23801;-71
2022/11/04 04:32:14;;;;;;;22.80;14.40;;;;;;;7.73;75.67;98092.83;85788;1296;99305;-72
2022/11/04 04:34:27;;;;;;;25.30;13.80;;;;;;;7.73;75.56;98094.05;85784;1297;22608;-72
2022/11/04 04:36:32;;;;;;;27.40;14.80;;;;;;;7.72;75.71;98095.83;85726;1297;25673;-72
2022/11/04 04:45:54;;;;;;;27.80;15.10;;;;;;;7.70;75.41;98090.72;85803;1289;24292;-71
2022/11/04 04:47:57;;;;;;;25.10;14.90;;;;;;;7.69;75.97;98096.20;86392;1298;25309;-71
2022/11/04 04:50:00;;;;;;;23.90;15.40;;;;;;;7.69;75.37;98098.46;85623;1291;100157;-72
2022/11/04 04:52:06;;;;;;;22.10;14.50;;;;;;;7.69;75.69;98095.83;85688;1291;22703;-71
2022/11/04 04:54:07;;;;;;;20.80;14.10;;;;;;;7.69;75.63;98097.79;85791;1295;22515;-71
2022/11/04 04:56:09;;;;;;;26.20;15.20;;;;;;;7.68;75.66;98093.79;85717;1298;99329;-72
2022/11/04 04:58:10;;;;;;;18.60;14.40;;;;;;;7.67;75.61;98094.00;85718;1288;25329;-71
2022/11/04 05:00:18;;;;;;;21.90;14.80;;;;;;;7.67;75.66;98097.50;85801;1291;22708;-71
2022/11/04 05:02:20;;;;;;;19.30;13.10;;;;;;;7.67;75.64;98096.25;85684;1284;99079;-71
2022/11/04 05:04:22;;;;;;;19.30;13.20;;;;;;;7.66;75.51;98095.58;85743;1297;23241;-71
2022/11/04 05:06:24;;;;;;;27.10;14.30;;;;;;;7.65;75.47;98088.51;85850;1291;22477;-71
2022/11/04 05:08:25;;;;;;;19.70;13.50;;;;;;;7.65;75.79;98076.77;85740;1290;99083;-71
2022/11/04 05:10:27;;;;;;;27.60;14.40;;;;;;;7.64;75.78;98073.33;85692;1290;26591;-73
2022/11/04 05:13:24;;;;;;;21.80;14.20;;;;;;;7.63;75.49;98076.52;85784;1296;22588;-72
2022/11/04 05:14:50;;;;;;;25.70;14.60;;;;;;;7.62;75.72;98074.11;85823;1304;24344;-73
2022/11/04 05:16:52;;;;;;;24.70;14.60;;;;;;;7.62;75.28;98080.44;85666;1284;22613;-72
2022/11/04 05:18:54;;;;;;;22.60;15.00;;;;;;;7.62;75.85;98075.02;85575;1300;99268;-72
2022/11/04 05:20:55;;;;;;;34.20;14.60;;;;;;;7.62;75.51;98069.08;85738;1297;23379;-72
2022/11/04 05:22:57;;;;;;;23.30;14.40;;;;;;;7.61;75.44;98065.40;85753;1290;22612;-72
2022/11/04 05:24:58;;;;;;;26.70;14.90;;;;;;;7.61;75.81;98065.13;85824;1283;99183;-73
2022/11/04 05:27:00;;;;;;;28.20;14.40;;;;;;;7.61;75.51;98067.87;85839;1290;22505;-72
2022/11/04 05:29:03;;;;;;;24.80;14.40;;;;;;;7.61;75.65;98075.02;85894;1288;25185;-72
2022/11/04 05:31:06;;;;;;;23.90;14.10;;;;;;;7.61;76.01;98080.98;85799;1298;99194;-72
2022/11/04 05:33:07;;;;;;;23.40;14.50;;;;;;;7.63;75.61;98080.20;85845;1313;22608;-71
2022/11/04 05:35:09;;;;;;;28.20;16.10;;;;;;;7.64;75.61;98072.12;86214;1303;22983;-72
2022/11/04 05:37:11;;;;;;;31.50;18.10;;;;;;;7.63;75.40;98073.04;86767;1310;97702;-71
2022/11/04 05:39:13;;;;;;;35.50;17.60;;;;;;;7.62;75.55;98076.39;86378;1289;25261;-71
2022/11/04 05:41:24;;;;;;;31.30;16.30;;;;;;;7.61;75.75;98074.89;86109;1304;22935;-71
2022/11/04 05:43:26;;;;;;;32.90;16.40;;;;;;;7.60;75.44;98069.50;85880;1290;99215;-70
2022/11/04 05:45:28;;;;;;;25.60;15.90;;;;;;;7.59;75.55;98075.16;85808;1298;25433;-72
2022/11/04 05:47:30;;;;;;;25.30;16.20;;;;;;;7.58;75.58;98075.72;85869;1298;22482;-71
2022/11/04 05:49:32;;;;;;;36.00;16.80;;;;;;;7.58;75.53;98070.17;85599;1291;99813;-71
2022/11/04 05:51:34;;;;;;;33.90;17.00;;;;;;;7.57;75.87;98073.52;85901;1296;22497;-71
2022/11/04 05:53:35;;;;;;;47.30;18.50;;;;;;;7.55;76.02;98073.80;85726;1312;24334;-72
2022/11/04 05:55:37;;;;;;;36.40;19.20;;;;;;;7.53;75.86;98075.81;85571;1284;99589;-72
2022/11/04 05:57:40;;;;;;;39.50;18.50;;;;;;;7.50;75.66;98075.77;85736;1290;22505;-70
2022/11/04 05:59:41;;;;;;;36.80;18.30;;;;;;;7.47;75.75;98076.80;85680;1297;25665;-70
2022/11/04 06:01:43;;;;;;;46.00;19.30;;;;;;;7.45;75.73;98080.21;85629;1296;99150;-71
2022/11/04 06:03:45;;;;;;;39.40;19.50;;;;;;;7.44;75.88;98081.49;85493;1286;22507;-70
2022/11/04 06:05:46;;;;;;;48.90;19.20;;;;;;;7.40;75.97;98075.05;85700;1297;26516;-71
2022/11/04 06:07:48;;;;;;;46.30;16.90;;;;;;;7.41;75.94;98087.60;85609;1284;99473;-70
2022/11/04 06:09:50;;;;;;;33.40;16.90;;;;;;;7.38;75.83;98081.45;85600;1291;23275;-71
2022/11/04 06:11:51;;;;;;;39.10;15.80;;;;;;;7.37;76.06;98081.86;85712;1297;26504;-71
2022/11/04 06:13:55;;;;;;;40.10;17.10;;;;;;;7.36;75.94;98081.73;85702;1291;99109;-72
2022/11/04 06:15:56;;;;;;;37.40;17.50;;;;;;;7.35;76.08;98084.39;85829;1298;24262;-71
2022/11/04 06:17:58;;;;;;;35.10;16.30;;;;;;;7.34;76.11;98086.20;85517;1294;22525;-70
2022/11/04 06:20:00;;;;;;;47.30;17.50;;;;;;;7.32;76.51;98087.66;85616;1291;99249;-72
2022/11/04 06:22:02;;;;;;;28.30;16.00;;;;;;;7.30;75.93;98083.77;85552;1300;25422;-72
2022/11/04 06:24:04;;;;;;;47.20;16.40;;;;;;;7.29;76.09;98080.15;85506;1309;23528;-71
2022/11/04 06:26:06;;;;;;;41.40;16.50;;;;;;;7.26;76.41;98076.46;85383;1293;98991;-71
2022/11/04 06:28:08;;;;;;;40.20;15.40;;;;;;;7.27;76.04;98079.52;85664;1300;22499;-71
2022/11/04 06:30:11;;;;;;;45.10;17.10;;;;;;;7.25;76.15;98074.71;85434;1302;22536;-72
2022/11/04 06:32:16;;;;;;;30.00;15.40;;;;;;;7.24;76.18;98080.59;85469;1301;99363;-71
2022/11/04 06:34:17;;;;;;;27.20;15.90;;;;;;;7.23;76.21;98079.41;86404;1296;24290;-71
2022/11/04 06:36:19;;;;;;;43.50;16.60;;;;;;;7.22;76.30;98082.08;85692;1289;22685;-71
2022/11/04 06:38:21;;;;;;;34.60;16.50;;;;;;;7.20;76.49;98080.21;85619;1291;99000;-72
2022/11/04 06:40:22;;;;;;;38.10;16.50;;;;;;;7.20;76.22;98084.77;85778;1296;24015;-72
2022/11/04 06:42:25;;;;;;;44.90;16.30;;;;;;;7.19;76.11;98087.29;85581;1294;23457;-71
2022/11/04 06:44:28;;;;;;;35.80;17.00;;;;;;;7.19;76.40;98084.49;85548;1291;99665;-72
2022/11/04 06:46:39;;;;;;;35.00;16.50;;;;;;;7.20;76.55;98085.31;85518;1295;22570;-71
2022/11/04 06:48:41;;;;;;;48.00;16.80;;;;;;;7.21;76.50;98085.23;85762;1290;25300;-71
2022/11/04 06:50:43;;;;;;;36.00;17.40;;;;;;;7.22;76.50;98081.86;85685;1294;99006;-71
2022/11/04 06:52:44;;;;;;;43.80;17.80;;;;;;;7.24;76.40;98079.66;85575;1296;22498;-72
2022/11/04 06:54:46;;;;;;;37.90;18.40;;;;;;;7.27;76.40;98080.23;85394;1292;99223;-72
2022/11/04 06:56:48;;;;;;;41.70;18.10;;;;;;;7.30;76.37;98079.38;85783;1289;23041;-72
2022/11/04 06:58:52;;;;;;;52.20;18.50;;;;;;;7.35;76.30;98078.30;85491;1286;22756;-72
2022/11/04 07:00:53;;;;;;;47.30;17.10;;;;;;;7.40;76.35;98079.27;85354;1289;99866;-73
2022/11/04 07:02:55;;;;;;;36.70;16.30;;;;;;;7.45;76.27;98071.30;85644;1291;24205;-72
2022/11/04 07:04:57;;;;;;;41.50;16.70;;;;;;;7.52;76.34;98068.70;85916;1288;22497;-72
2022/11/04 07:06:59;;;;;;;27.90;16.30;;;;;;;7.61;76.56;98066.30;85766;1298;99649;-71
2022/11/04 07:09:02;;;;;;;38.10;15.30;;;;;;;7.71;76.59;98059.73;85734;1305;22551;-73
2022/11/04 07:11:04;;;;;;;36.00;15.60;;;;;;;7.79;76.31;98057.91;85831;1297;22711;-72
2022/11/04 07:13:06;;;;;;;41.40;15.40;;;;;;;7.88;76.69;98058.80;85710;1294;99997;-73
2022/11/04 07:15:08;;;;;;;42.10;16.50;;;;;;;7.93;76.53;98054.70;85681;1303;24058;-72
2022/11/04 07:17:10;;;;;;;40.70;16.70;;;;;;;8.06;76.52;98066.27;85692;1298;23320;-73
2022/11/04 07:19:12;;;;;;;46.30;17.00;;;;;;;8.15;76.40;98067.05;85614;1287;99067;-73
2022/11/04 07:21:15;;;;;;;31.50;15.50;;;;;;;8.25;76.30;98061.77;85638;1291;23938;-71
2022/11/04 07:23:17;;;;;;;27.90;14.90;;;;;;;8.33;76.43;98058.19;85596;1291;25291;-71
2022/11/04 07:25:18;;;;;;;33.30;13.00;;;;;;;8.41;76.55;98060.39;85484;1307;99621;-72
2022/11/04 07:27:20;;;;;;;37.20;14.50;;;;;;;8.49;76.45;98061.73;85585;1298;26553;-72
2022/11/04 07:29:24;;;;;;;25.10;13.90;;;;;;;8.58;76.17;98060.73;85740;1304;22545;-71
2022/11/04 07:31:26;;;;;;;28.40;13.80;;;;;;;8.65;76.05;98061.92;85658;1291;98611;-72
2022/11/04 07:33:28;;;;;;;27.00;14.00;;;;;;;8.73;75.88;98057.80;85836;1292;22486;-72
2022/11/04 07:35:30;;;;;;;31.30;14.50;;;;;;;8.81;75.89;98051.42;85723;1299;24012;-72
2022/11/04 07:37:31;;;;;;;29.10;13.90;;;;;;;8.91;75.92;98051.59;85796;1296;99702;-71
2022/11/04 07:39:33;;;;;;;34.70;13.20;;;;;;;8.99;75.75;98049.38;85935;1295;22434;-69
2022/11/04 07:41:35;;;;;;;30.50;14.10;;;;;;;9.08;75.68;98055.50;85663;1289;249801;-71
2022/11/04 07:43:36;;;;;;;25.20;12.80;;;;;;;9.19;75.93;98059.95;85677;1296;99777;-70
2022/11/04 07:45:38;;;;;;;22.90;12.10;;;;;;;9.28;75.81;98056.27;85858;1297;25429;-70
2022/11/04 07:47:40;;;;;;;27.90;14.40;;;;;;;9.39;75.63;98053.75;85694;1296;23855;-71
2022/11/04 07:49:42;;;;;;;23.10;12.20;;;;;;;9.49;75.57;98049.15;85550;1301;99043;-71
2022/11/04 07:51:43;;;;;;;30.90;12.50;;;;;;;9.60;75.41;98048.99;85718;1296;22480;-71
2022/11/04 07:53:45;;;;;;;27.90;13.10;;;;;;;9.72;75.52;98041.95;85594;1301;22471;-73
2022/11/04 07:55:49;;;;;;;32.10;11.40;;;;;;;9.85;75.17;98038.73;85604;1299;99646;-72
2022/11/04 07:57:53;;;;;;;20.10;11.30;;;;;;;9.97;75.08;98040.46;86343;1290;22609;-72
2022/11/04 07:59:55;;;;;;;36.10;11.60;;;;;;;10.09;75.01;98035.05;85762;1297;22498;-71
2022/11/04 08:01:57;;;;;;;38.10;12.10;;;;;;;10.21;74.95;98034.99;85797;1283;99357;-71
2022/11/04 08:03:59;;;;;;;26.80;10.10;;;;;;;10.35;74.65;98038.53;85719;1291;24368;-72
2022/11/04 08:06:02;;;;;;;29.00;11.20;;;;;;;10.44;74.40;98030.14;85810;1291;22594;-71
2022/11/04 08:08:04;;;;;;;22.60;10.30;;;;;;;10.52;74.22;98025.52;85560;1300;99597;-72
2022/11/04 08:10:08;;;;;;;23.30;10.20;;;;;;;10.61;74.19;98019.18;85763;1290;23426;-70
2022/11/04 08:12:12;;;;;;;27.10;10.70;;;;;;;10.66;73.94;98017.48;85858;1284;25235;-71
2022/11/04 08:14:15;;;;;;;23.60;10.20;;;;;;;10.70;73.93;98018.79;85804;1290;99253;-75
2022/11/04 08:16:18;;;;;;;21.20;10.60;;;;;;;10.78;74.08;98011.60;85632;1290;22613;-75
2022/11/04 08:18:22;;;;;;;14.30;9.10;;;;;;;10.91;74.05;98015.89;85835;1290;24268;-73
2022/11/04 08:20:24;;;;;;;18.90;10.10;;;;;;;11.02;73.95;98012.14;85559;1291;99589;-72
2022/11/04 08:22:25;;;;;;;29.80;9.70;;;;;;;11.13;73.80;98007.41;85821;1291;23285;-74
2022/11/04 08:24:27;;;;;;;17.40;9.60;;;;;;;11.24;73.52;98002.44;85746;1291;22617;-73
2022/11/04 08:26:29;;;;;;;15.60;9.30;;;;;;;11.32;73.31;97997.17;85758;1296;99289;-72
2022/11/04 08:28:31;;;;;;;24.10;9.30;;;;;;;11.37;73.38;97994.38;85891;1283;24463;-70
2022/11/04 08:30:32;;;;;;;18.30;9.50;;;;;;;11.42;73.31;97990.02;85711;1287;22476;-71
2022/11/04 08:32:34;;;;;;;28.70;9.90;;;;;;;11.46;73.24;97987.30;85827;1288;98992;-70
2022/11/04 08:34:36;;;;;;;22.20;10.80;;;;;;;11.54;73.33;97990.96;85835;1281;22713;-70
2022/11/04 08:36:39;;;;;;;37.30;11.20;;;;;;;11.63;73.34;97995.23;85657;1291;22624;-70
2022/11/04 08:38:41;;;;;;;16.10;9.90;;;;;;;11.72;73.01;97994.64;86559;1290;99499;-68
2022/11/04 08:40:43;;;;;;;18.00;9.70;;;;;;;11.79;72.97;97995.20;85777;1284;22642;-70
2022/11/04 08:42:46;;;;;;;30.70;9.60;;;;;;;11.88;73.04;97993.02;85737;1290;22468;-69
2022/11/04 08:44:51;;;;;;;43.80;10.50;;;;;;;11.97;73.21;97991.05;85802;1286;98833;-70
2022/11/04 08:46:53;;;;;;;36.70;12.10;;;;;;;12.07;73.16;97986.10;85788;1286;22605;-70
2022/11/04 08:48:54;;;;;;;25.40;10.60;;;;;;;12.22;73.02;97979.42;85740;1283;99584;-71
2022/11/04 08:50:57;;;;;;;18.50;8.70;;;;;;;12.31;72.78;97979.66;85811;1287;22600;-73
2022/11/04 08:52:59;;;;;;;15.00;8.50;;;;;;;12.38;72.65;97977.91;85804;1287;22695;-70
2022/11/04 08:55:02;;;;;;;27.80;9.30;;;;;;;12.45;72.48;97978.85;85684;1287;99484;-69
2022/11/04 08:57:04;;;;;;;15.00;8.00;;;;;;;12.53;72.18;97977.91;85696;1291;25300;-70
2022/11/04 08:59:07;;;;;;;21.60;9.20;;;;;;;12.61;72.17;97981.23;85736;1287;22523;-70
2022/11/04 09:01:09;;;;;;;22.50;8.60;;;;;;;12.68;71.93;97979.63;85568;1284;99055;-71
2022/11/04 09:03:11;;;;;;;32.70;10.50;;;;;;;12.76;71.99;97973.56;85719;1290;26237;-69
2022/11/04 09:05:13;;;;;;;23.40;8.70;;;;;;;12.83;71.89;97971.70;85668;1294;22602;-70
2022/11/04 09:07:16;;;;;;;18.10;8.50;;;;;;;12.88;71.59;97970.07;85601;1290;99178;-70
2022/11/04 09:09:18;;;;;;;21.30;8.90;;;;;;;12.93;71.51;97966.04;85790;1288;23744;-70
2022/11/04 09:11:20;;;;;;;24.50;8.70;;;;;;;12.97;71.48;97957.62;85698;1284;24367;-71
2022/11/04 09:13:22;;;;;;;24.40;8.50;;;;;;;13.02;71.56;97959.02;85683;1290;99425;-71
2022/11/04 09:15:24;;;;;;;23.90;8.80;;;;;;;13.09;71.51;97958.66;85745;1290;22735;-71
2022/11/04 09:17:25;;;;;;;38.20;10.70;;;;;;;13.15;71.61;97954.87;85899;1287;22659;-71
2022/11/04 09:19:27;;;;;;;22.40;8.80;;;;;;;13.21;71.46;97953.20;85594;1290;99792;-70
2022/11/04 09:21:30;;;;;;;11.00;6.30;;;;;;;13.26;71.24;97951.94;85905;1288;22559;-70
2022/11/04 09:23:32;;;;;;;8.40;5.90;;;;;;;13.33;70.87;97947.89;85805;1283;22542;-70
2022/11/04 09:25:34;;;;;;;13.90;6.70;;;;;;;13.35;70.85;97939.09;85716;1283;97749;-70
2022/11/04 09:27:36;;;;;;;26.60;7.90;;;;;;;13.40;70.90;97938.88;85796;1291;25327;-71
2022/11/04 09:29:38;;;;;;;18.50;8.30;;;;;;;13.49;70.71;97931.52;86057;1287;22517;-71
2022/11/04 09:31:39;;;;;;;25.60;7.60;;;;;;;13.59;70.57;97924.95;85792;1286;98830;-70
2022/11/04 09:33:41;;;;;;;17.30;7.80;;;;;;;13.65;70.35;97924.57;86483;1289;22489;-72
2022/11/04 09:35:52;;;;;;;21.90;8.50;;;;;;;13.70;70.26;97921.63;86786;1291;24300;-73
2022/11/04 09:37:54;;;;;;;24.70;8.60;;;;;;;13.72;70.07;97918.64;86118;1294;99208;-71
2022/11/04 09:39:56;;;;;;;14.40;7.20;;;;;;;13.76;70.28;97916.83;86003;1290;22604;-71
2022/11/04 09:42:00;;;;;;;20.10;8.60;;;;;;;13.85;70.29;97914.63;85878;1290;22587;-71
2022/11/04 09:44:11;;;;;;;24.40;7.90;;;;;;;13.94;70.14;97918.28;86078;1287;99670;-72
2022/11/04 09:46:13;;;;;;;15.80;7.20;;;;;;;13.99;69.70;97919.48;86082;1287;25303;-71
2022/11/04 09:48:39;;;;;;;26.40;8.50;;;;;;;14.05;69.85;97920.82;86181;1293;22517;-70
2022/11/04 09:50:49;;;;;;;21.60;7.70;;;;;;;14.22;69.84;97912.94;85838;1296;99886;-71
2022/11/04 09:53:00;;;;;;;18.30;8.50;;;;;;;14.36;69.98;97910.71;85882;1288;22495;-70
2022/11/04 09:55:11;;;;;;;17.70;8.10;;;;;;;14.51;69.65;97910.39;86062;1289;99691;-71
2022/11/04 09:57:17;;;;;;;29.00;7.90;;;;;;;14.67;69.38;97909.11;85973;1295;26489;-70
2022/11/04 09:59:26;;;;;;;22.60;7.60;;;;;;;14.82;69.18;97906.53;85880;1287;24340;-71
2022/11/04 10:01:36;;;;;;;21.00;8.10;;;;;;;14.94;68.99;97901.92;85872;1290;99561;-70
2022/11/04 10:03:47;;;;;;;50.80;9.70;;;;;;;15.06;68.65;97900.61;85962;1294;26161;-69
2022/11/04 10:05:58;;;;;;;37.40;9.20;;;;;;;15.23;68.76;97900.42;85877;1293;22474;-71
2022/11/04 10:08:05;;;;;;;25.10;9.00;;;;;;;15.43;68.42;97899.09;85843;1295;99008;-71
2022/11/04 10:10:35;;;;;;;25.20;8.90;;;;;;;15.58;68.25;97895.72;85953;1294;22534;-71
2022/11/04 10:13:10;;;;;;;47.70;9.70;;;;;;;15.84;68.32;97894.50;87543;1287;23682;-71
2022/11/04 10:15:33;;;;;;;35.70;8.80;;;;;;;15.98;67.62;97891.50;85732;1290;23475;-71